Time;durP1;ratioP1;P1;durP2;ratioP2;P2;SDS_P1;SDS_P2;PMS_P1;PMS_P2;Temp;Humidity;BMP_temperature;BMP_pressure;BME280_temperature;BME280_humidity;BME280_pressure;Samples;Min_cycle;Max_cycle;Signal;HPM_P1;HPM_P2
2022/01/20 00:00:32;;;;;;;10.32;1.90;;;5.20;95.60;;;;;;4983124;28;20054;-60
2022/01/20 00:03:01;;;;;;;12.98;2.35;;;5.30;95.80;;;;;;4983574;28;20058;-60
2022/01/20 00:05:36;;;;;;;14.00;1.88;;;5.30;95.90;;;;;;4983412;28;20544;-60
2022/01/20 00:08:11;;;;;;;16.75;2.72;;;5.30;95.90;;;;;;4982949;28;20517;-62
2022/01/20 00:27:11;;;;;;;9.48;1.80;;;5.40;95.90;;;;;;4983687;28;20050;-59
2022/01/20 00:30:05;;;;;;;16.92;1.90;;;5.40;95.90;;;;;;4983016;28;20907;-59
2022/01/20 00:32:40;;;;;;;;;;;5.30;95.90;;;;;;4983832;28;20050;-59
2022/01/20 00:35:18;;;;;;;9.85;1.80;;;5.30;95.90;;;;;;4983247;28;19932;-60
2022/01/20 00:37:45;;;;;;;14.02;2.40;;;5.30;96.00;;;;;;4982929;28;20137;-60
2022/01/20 00:40:12;;;;;;;14.20;2.40;;;5.30;96.20;;;;;;4983169;28;20087;-60
2022/01/20 00:42:41;;;;;;;16.67;2.00;;;5.30;96.10;;;;;;4982602;28;20953;-60
2022/01/20 00:45:09;;;;;;;10.50;1.88;;;5.30;96.20;;;;;;4982807;28;20128;-60
2022/01/20 00:47:37;;;;;;;14.77;1.75;;;5.30;96.20;;;;;;4982711;28;20061;-64
2022/01/20 00:50:05;;;;;;;8.82;1.70;;;5.40;96.20;;;;;;4976938;28;20058;-64
2022/01/20 00:52:32;;;;;;;13.40;1.75;;;5.40;96.20;;;;;;4982216;28;20058;-65
2022/01/20 00:54:59;;;;;;;16.85;2.03;;;5.40;96.20;;;;;;4982362;28;20050;-64
2022/01/20 00:57:26;;;;;;;18.52;2.58;;;5.40;96.20;;;;;;4984935;28;20531;-65
2022/01/20 00:59:55;;;;;;;12.65;2.20;;;5.40;96.20;;;;;;4985544;28;20133;-67
2022/01/20 01:02:23;;;;;;;16.45;2.58;;;5.30;96.10;;;;;;4986663;28;20149;-64
2022/01/20 01:04:50;;;;;;;15.93;2.35;;;5.40;96.20;;;;;;4985081;28;20057;-64
2022/01/20 01:10:11;;;;;;;12.05;1.80;;;5.30;96.30;;;;;;4946025;28;20055;-64
2022/01/20 01:12:45;;;;;;;12.93;1.60;;;5.40;96.40;;;;;;4985604;28;20432;-64
2022/01/20 01:15:19;;;;;;;13.45;2.13;;;5.40;96.40;;;;;;4984852;28;20687;-64
2022/01/20 01:20:33;;;;;;;4.75;0.90;;;5.50;96.00;;;;;;4985628;28;20043;-64
2022/01/20 01:23:00;;;;;;;6.50;1.00;;;5.40;95.40;;;;;;4985706;28;20054;-66
2022/01/20 01:25:27;;;;;;;6.45;1.20;;;5.40;95.60;;;;;;4986732;28;20248;-64
2022/01/20 01:27:56;;;;;;;6.43;0.90;;;5.50;95.40;;;;;;4985433;28;20097;-64
2022/01/20 01:30:45;;;;;;;7.28;1.10;;;5.30;95.30;;;;;;4986029;28;20061;-64
2022/01/20 01:33:12;;;;;;;7.30;1.10;;;5.30;95.40;;;;;;4985752;28;20061;-64
2022/01/20 01:35:41;;;;;;;10.25;1.75;;;5.30;95.20;;;;;;4985657;28;20054;-64
2022/01/20 01:38:35;;;;;;;5.93;1.00;;;5.20;95.20;;;;;;4985447;28;20806;-64
2022/01/20 01:41:03;;;;;;;;;;;5.30;95.30;;;;;;4986172;28;20110;-64
2022/01/20 01:43:31;;;;;;;9.48;1.60;;;5.20;95.10;;;;;;4984587;28;19929;-64
2022/01/20 01:46:01;;;;;;;9.30;1.13;;;5.20;95.40;;;;;;4982757;28;20137;-64
2022/01/20 01:48:28;;;;;;;9.25;1.30;;;5.20;95.40;;;;;;4985368;28;20942;-62
2022/01/20 01:50:55;;;;;;;18.42;1.83;;;5.20;95.40;;;;;;4984955;28;20061;-63
2022/01/20 01:53:23;;;;;;;8.02;1.45;;;5.20;95.50;;;;;;4985281;28;20065;-63
2022/01/20 01:55:49;;;;;;;12.95;1.67;;;5.20;95.50;;;;;;4983607;28;20055;-63
2022/01/20 01:58:16;;;;;;;18.55;1.80;;;5.20;95.60;;;;;;4984980;28;20054;-62
2022/01/20 02:00:43;;;;;;;13.45;1.90;;;5.20;95.60;;;;;;4983661;28;20101;-63
2022/01/20 02:03:13;;;;;;;12.23;1.95;;;5.30;95.80;;;;;;4985635;28;20090;-63
2022/01/20 02:05:52;;;;;;;16.92;2.97;;;5.30;96.00;;;;;;4984989;28;20176;-63
2022/01/20 02:08:29;;;;;;;13.88;2.05;;;5.30;96.20;;;;;;4984695;28;20716;-63
2022/01/20 02:19:12;;;;;;;17.33;2.60;;;5.30;96.10;;;;;;4985331;28;20046;-63
2022/01/20 02:21:48;;;;;;;15.15;2.17;;;5.20;95.70;;;;;;4984130;28;21942;-63
2022/01/20 02:24:16;;;;;;;9.43;1.73;;;5.00;95.30;;;;;;4985047;28;20050;-63
2022/01/20 02:26:42;;;;;;;9.93;1.75;;;4.80;95.60;;;;;;4982970;28;20156;-62
2022/01/20 02:29:09;;;;;;;13.07;1.52;;;4.60;95.70;;;;;;4984563;28;20109;-63
2022/01/20 02:31:36;;;;;;;8.07;1.67;;;4.50;96.00;;;;;;4983613;28;20062;-64
2022/01/20 02:34:03;;;;;;;15.35;2.08;;;4.40;96.20;;;;;;4983811;28;20062;-65
2022/01/20 02:36:31;;;;;;;15.10;2.35;;;4.40;96.30;;;;;;4984649;28;20058;-64
2022/01/20 02:39:05;;;;;;;21.70;3.35;;;4.40;96.40;;;;;;4984953;28;20968;-64
2022/01/20 02:47:11;;;;;;;20.83;3.55;;;4.50;95.90;;;;;;4985261;28;20047;-65
2022/01/20 02:49:38;;;;;;;20.30;3.80;;;4.60;95.60;;;;;;4984032;28;20062;-66
2022/01/20 02:52:06;;;;;;;21.92;3.63;;;4.60;95.60;;;;;;4984463;28;20046;-63
2022/01/20 02:54:35;;;;;;;23.92;3.72;;;4.60;95.50;;;;;;4983555;28;20061;-64
2022/01/20 02:57:02;;;;;;;24.80;5.97;;;4.70;95.60;;;;;;4984498;28;20058;-63
2022/01/20 02:59:29;;;;;;;23.98;4.07;;;4.70;95.50;;;;;;4984093;28;20062;-65
2022/01/20 03:01:56;;;;;;;20.15;3.45;;;4.70;95.40;;;;;;4982746;28;20061;-64
2022/01/20 03:04:25;;;;;;;20.65;3.63;;;4.80;95.10;;;;;;4981932;28;20057;-65
2022/01/20 03:06:52;;;;;;;19.33;3.25;;;4.70;94.30;;;;;;4983917;28;20200;-64
2022/01/20 03:09:19;;;;;;;20.05;3.17;;;4.70;94.10;;;;;;4984564;28;20489;-64
2022/01/20 03:11:48;;;;;;;19.63;3.40;;;4.70;93.90;;;;;;4984304;28;20058;-64
2022/01/20 03:14:17;;;;;;;18.75;3.50;;;4.60;93.60;;;;;;4982949;28;20466;-65
2022/01/20 03:16:44;;;;;;;22.70;3.08;;;4.60;93.30;;;;;;4983212;28;20749;-65
2022/01/20 03:19:11;;;;;;;24.40;4.47;;;4.60;93.30;;;;;;4983527;28;20758;-66
2022/01/20 03:21:38;;;;;;;21.13;2.97;;;4.60;93.20;;;;;;4983431;28;20137;-64
2022/01/20 03:24:05;;;;;;;22.95;4.40;;;4.60;93.30;;;;;;4983726;28;20137;-64
2022/01/20 03:26:32;;;;;;;17.13;3.00;;;4.60;93.40;;;;;;4983867;28;20050;-64
2022/01/20 03:29:01;;;;;;;21.08;3.00;;;4.60;93.70;;;;;;4982596;28;20057;-63
2022/01/20 03:31:30;;;;;;;20.85;3.15;;;5.00;93.70;;;;;;4983934;28;20054;-65
2022/01/20 03:33:57;;;;;;;17.70;3.05;;;4.50;93.20;;;;;;4984059;28;21764;-63
2022/01/20 03:36:24;;;;;;;13.23;2.50;;;4.50;92.20;;;;;;4983965;28;20050;-66
2022/01/20 03:38:51;;;;;;;20.38;3.45;;;4.50;92.00;;;;;;4983397;28;20789;-63
2022/01/20 03:41:18;;;;;;;16.35;2.95;;;4.50;91.60;;;;;;4983354;28;20058;-65
2022/01/20 03:43:45;;;;;;;11.55;2.33;;;4.50;90.90;;;;;;4983863;28;20072;-63
2022/01/20 03:46:14;;;;;;;15.80;2.40;;;4.50;90.50;;;;;;4983537;28;20054;-62
2022/01/20 03:48:49;;;;;;;11.35;2.03;;;4.40;90.60;;;;;;4983922;28;20767;-63
2022/01/20 03:51:20;;;;;;;16.55;3.00;;;4.50;90.00;;;;;;4983965;28;20960;-61
2022/01/20 03:53:49;;;;;;;13.00;3.33;;;4.40;85.90;;;;;;4983548;28;20881;-63
2022/01/20 03:56:16;;;;;;;22.50;2.88;;;4.40;85.60;;;;;;4982360;28;20054;-64
2022/01/20 03:58:43;;;;;;;12.90;2.75;;;4.30;85.80;;;;;;4983117;28;20568;-64
2022/01/20 04:01:10;;;;;;;12.93;1.80;;;4.30;86.00;;;;;;4982895;28;20058;-62
2022/01/20 04:03:38;;;;;;;16.05;3.03;;;4.20;85.00;;;;;;4984227;28;20053;-64
2022/01/20 04:06:05;;;;;;;19.10;2.13;;;4.20;85.50;;;;;;4982316;28;20514;-66
2022/01/20 04:08:34;;;;;;;14.15;2.17;;;4.20;85.80;;;;;;4983413;28;22228;-64
2022/01/20 04:11:03;;;;;;;11.95;2.22;;;4.10;85.50;;;;;;4982663;28;20180;-65
2022/01/20 04:13:32;;;;;;;10.60;2.05;;;4.10;85.30;;;;;;4983014;28;20049;-67
2022/01/20 04:16:00;;;;;;;13.27;2.35;;;4.10;84.50;;;;;;4983562;28;20065;-65
2022/01/20 04:18:28;;;;;;;15.40;2.28;;;4.00;84.70;;;;;;4983179;28;20517;-64
2022/01/20 04:20:57;;;;;;;12.10;2.42;;;4.00;84.10;;;;;;4983617;28;20089;-65
2022/01/20 04:23:24;;;;;;;14.23;2.13;;;4.00;84.80;;;;;;4984019;28;20097;-64
2022/01/20 04:25:50;;;;;;;11.35;2.10;;;4.00;83.70;;;;;;4982392;28;20050;-66
2022/01/20 04:28:17;;;;;;;15.10;2.67;;;4.00;82.90;;;;;;4982241;28;20056;-63
2022/01/20 04:30:44;;;;;;;12.65;2.63;;;4.00;83.40;;;;;;4983632;28;20513;-65
2022/01/20 04:33:11;;;;;;;17.17;2.38;;;4.10;82.20;;;;;;4983461;28;20137;-64
2022/01/20 04:35:38;;;;;;;14.35;2.10;;;4.10;83.00;;;;;;4982403;28;20141;-65
2022/01/20 04:38:07;;;;;;;19.00;2.30;;;4.20;83.30;;;;;;4983557;28;20054;-65
2022/01/20 04:40:39;;;;;;;15.77;1.85;;;4.20;83.10;;;;;;4982998;28;20496;-64
2022/01/20 04:43:06;;;;;;;25.05;3.95;;;4.20;83.20;;;;;;4984120;28;20089;-64
2022/01/20 04:45:39;;;;;;;24.83;2.95;;;4.20;84.50;;;;;;4982990;28;21977;-64
2022/01/20 04:48:19;;;;;;;16.00;4.17;;;4.20;85.10;;;;;;4983674;28;20109;-65
2022/01/20 04:59:01;;;;;;;21.42;3.28;;;4.10;86.30;;;;;;4982877;28;20046;-64
2022/01/20 05:01:28;;;;;;;16.67;3.38;;;4.10;86.40;;;;;;4981867;28;20161;-64
2022/01/20 05:03:56;;;;;;;10.73;1.80;;;4.00;87.20;;;;;;4981788;28;20060;-65
2022/01/20 05:06:23;;;;;;;7.50;1.33;;;3.90;88.00;;;;;;4981942;28;20062;-64
2022/01/20 05:08:52;;;;;;;9.68;1.35;;;3.80;89.40;;;;;;4981881;28;20886;-66
2022/01/20 05:11:19;;;;;;;6.20;0.90;;;3.80;89.70;;;;;;4982109;28;20100;-64
2022/01/20 05:13:46;;;;;;;8.18;1.67;;;3.80;89.60;;;;;;4982312;28;20058;-65
2022/01/20 05:16:13;;;;;;;8.13;0.88;;;3.80;86.90;;;;;;4982099;28;20059;-66
2022/01/20 05:18:40;;;;;;;5.68;1.55;;;3.80;86.50;;;;;;4982117;28;20058;-63
2022/01/20 05:21:07;;;;;;;10.23;1.33;;;3.70;85.90;;;;;;4983130;28;20081;-63
2022/01/20 05:23:34;;;;;;;8.07;1.13;;;3.80;85.50;;;;;;4982738;28;20137;-67
2022/01/20 05:26:03;;;;;;;10.60;0.95;;;3.70;85.90;;;;;;4982638;28;20684;-65
2022/01/20 05:28:30;;;;;;;10.43;1.80;;;3.70;85.60;;;;;;4981953;28;20441;-65
2022/01/20 05:30:58;;;;;;;9.68;1.73;;;3.70;86.00;;;;;;4982553;28;21036;-66
2022/01/20 05:33:25;;;;;;;15.38;2.20;;;3.70;86.50;;;;;;4981636;28;20751;-63
2022/01/20 05:35:52;;;;;;;12.25;2.03;;;3.70;86.80;;;;;;4982252;28;20053;-63
2022/01/20 05:38:19;;;;;;;16.27;2.25;;;3.70;87.00;;;;;;4982158;28;20050;-65
2022/01/20 05:40:46;;;;;;;13.68;2.33;;;3.70;87.20;;;;;;4981728;28;20046;-65
2022/01/20 05:43:14;;;;;;;15.05;4.25;;;3.80;87.60;;;;;;4982733;28;20525;-62
2022/01/20 05:45:41;;;;;;;16.23;2.78;;;3.80;87.80;;;;;;4984629;28;21495;-63
2022/01/20 05:48:12;;;;;;;16.67;2.47;;;3.80;87.80;;;;;;4984524;28;20050;-63
2022/01/20 05:50:39;;;;;;;17.60;2.60;;;3.80;88.10;;;;;;4984497;28;20055;-64
2022/01/20 05:53:07;;;;;;;16.15;3.10;;;3.80;88.30;;;;;;4985487;28;20058;-64
2022/01/20 05:55:35;;;;;;;22.38;3.58;;;3.80;88.50;;;;;;4985546;28;20050;-63
2022/01/20 05:58:02;;;;;;;22.25;3.17;;;3.90;88.80;;;;;;4985174;28;20058;-64
2022/01/20 06:00:31;;;;;;;16.67;2.83;;;3.90;88.90;;;;;;4983768;28;22388;-66
2022/01/20 06:05:42;;;;;;;12.32;2.53;;;4.00;88.20;;;;;;4985605;28;20058;-64
2022/01/20 06:08:10;;;;;;;21.88;2.50;;;4.00;87.30;;;;;;4985061;28;20061;-62
2022/01/20 06:10:36;;;;;;;9.93;2.28;;;4.10;87.30;;;;;;4985969;28;20058;-65
2022/01/20 06:13:04;;;;;;;13.07;2.05;;;4.20;86.90;;;;;;4985117;28;20054;-64
2022/01/20 06:15:33;;;;;;;19.30;2.53;;;4.20;85.90;;;;;;4984082;28;20060;-65
2022/01/20 06:18:00;;;;;;;13.48;2.75;;;4.20;86.10;;;;;;4984146;28;20560;-63
2022/01/20 06:20:27;;;;;;;15.98;2.10;;;4.10;85.90;;;;;;4984528;28;20058;-63
2022/01/20 06:22:54;;;;;;;18.55;3.22;;;4.10;86.30;;;;;;4983947;28;20055;-62
2022/01/20 06:25:21;;;;;;;15.20;2.30;;;4.10;86.40;;;;;;4983737;28;20054;-63
2022/01/20 06:27:48;;;;;;;13.05;2.05;;;4.10;86.80;;;;;;4984940;28;20065;-63
2022/01/20 06:30:15;;;;;;;12.65;2.65;;;4.00;87.00;;;;;;4984037;28;20054;-63
2022/01/20 06:32:43;;;;;;;16.10;2.63;;;4.10;87.20;;;;;;4984888;28;20077;-63
2022/01/20 06:35:11;;;;;;;17.10;2.53;;;4.10;88.20;;;;;;4984501;28;20055;-63
2022/01/20 06:37:38;;;;;;;18.70;3.05;;;4.10;88.00;;;;;;4984015;28;20077;-63
2022/01/20 06:40:07;;;;;;;14.50;2.20;;;4.10;88.30;;;;;;4983761;28;20527;-62
2022/01/20 06:42:34;;;;;;;12.32;2.25;;;4.10;88.80;;;;;;4984285;28;20061;-62
2022/01/20 06:45:02;;;;;;;6.88;1.17;;;4.10;88.70;;;;;;4984410;28;20653;-62
2022/01/20 06:47:28;;;;;;;13.00;1.92;;;4.00;88.20;;;;;;4984781;28;20120;-62
2022/01/20 06:49:57;;;;;;;9.45;1.83;;;3.80;87.80;;;;;;4984617;28;20149;-62
2022/01/20 06:52:23;;;;;;;17.75;2.60;;;3.80;88.20;;;;;;4984134;28;20062;-62
2022/01/20 06:54:51;;;;;;;14.77;2.20;;;3.70;88.30;;;;;;4983499;28;20061;-62
2022/01/20 06:57:17;;;;;;;13.43;2.28;;;3.70;88.30;;;;;;4982960;28;20051;-62
2022/01/20 06:59:44;;;;;;;15.57;1.60;;;3.70;88.50;;;;;;4983935;28;20076;-62
2022/01/20 07:02:11;;;;;;;13.32;2.05;;;3.70;89.00;;;;;;4984355;28;20868;-62
2022/01/20 07:04:38;;;;;;;13.45;1.95;;;3.70;88.80;;;;;;4983431;28;20506;-62
2022/01/20 07:07:07;;;;;;;12.07;2.08;;;3.70;88.60;;;;;;4983684;28;20054;-62
2022/01/20 07:09:34;;;;;;;11.15;2.47;;;3.60;88.60;;;;;;4984632;28;20054;-62
2022/01/20 07:12:01;;;;;;;13.55;1.98;;;3.70;88.90;;;;;;4981672;28;20061;-62
2022/01/20 07:14:29;;;;;;;17.42;2.60;;;3.70;89.00;;;;;;4983436;28;20054;-62
2022/01/20 07:16:56;;;;;;;14.73;2.92;;;3.80;89.40;;;;;;4982653;28;20517;-62
2022/01/20 07:19:23;;;;;;;13.68;2.60;;;3.80;89.70;;;;;;4982187;28;20373;-62
2022/01/20 07:21:50;;;;;;;11.43;1.90;;;3.80;89.60;;;;;;4982151;28;20053;-62
2022/01/20 07:24:18;;;;;;;17.08;3.00;;;3.80;89.70;;;;;;4980663;28;20508;-62
2022/01/20 07:26:45;;;;;;;11.18;1.83;;;3.80;89.90;;;;;;4983416;28;20540;-62
2022/01/20 07:29:12;;;;;;;13.95;2.30;;;3.80;90.00;;;;;;4985007;28;20491;-62
2022/01/20 07:31:39;;;;;;;13.93;2.35;;;3.70;90.10;;;;;;4983397;28;20062;-62
2022/01/20 07:34:05;;;;;;;19.58;3.40;;;3.70;90.20;;;;;;4982179;28;20050;-62
2022/01/20 07:36:32;;;;;;;17.17;2.38;;;3.70;90.30;;;;;;4980479;28;20054;-62
2022/01/20 07:38:59;;;;;;;13.55;2.10;;;3.60;90.30;;;;;;4982856;28;20701;-62
2022/01/20 07:41:28;;;;;;;13.70;2.25;;;3.60;90.30;;;;;;4983437;28;20058;-62
2022/01/20 07:43:56;;;;;;;22.95;3.25;;;3.60;90.20;;;;;;4984358;28;20054;-62
2022/01/20 07:46:22;;;;;;;12.02;2.00;;;3.60;90.10;;;;;;4983756;28;20054;-61
2022/01/20 07:48:49;;;;;;;9.73;1.67;;;3.60;89.90;;;;;;4983423;28;20053;-62
2022/01/20 07:51:17;;;;;;;14.48;2.05;;;3.60;89.30;;;;;;4983217;28;20109;-61
2022/01/20 07:53:44;;;;;;;10.57;2.40;;;3.60;89.10;;;;;;4983729;28;20058;-62
2022/01/20 07:56:11;;;;;;;9.90;1.98;;;3.70;88.70;;;;;;4983656;28;20054;-62
2022/01/20 07:58:39;;;;;;;11.60;2.03;;;3.70;88.80;;;;;;4982403;28;20061;-61
2022/01/20 08:01:07;;;;;;;15.20;2.47;;;3.70;88.90;;;;;;4983760;28;20054;-62
2022/01/20 08:03:34;;;;;;;14.35;3.33;;;3.70;88.90;;;;;;4982417;28;20061;-61
2022/01/20 08:06:01;;;;;;;11.75;2.00;;;3.80;88.00;;;;;;4980121;28;20050;-62
2022/01/20 08:08:28;;;;;;;11.77;1.80;;;3.90;88.20;;;;;;4982352;28;20054;-61
2022/01/20 08:10:55;;;;;;;11.85;2.00;;;3.90;87.00;;;;;;4984026;28;21011;-62
2022/01/20 08:13:22;;;;;;;15.73;2.25;;;4.00;86.80;;;;;;4981847;28;20076;-61
2022/01/20 08:15:51;;;;;;;18.33;3.40;;;3.90;86.00;;;;;;4982273;28;20069;-61
2022/01/20 08:18:17;;;;;;;11.95;2.72;;;3.90;86.10;;;;;;4983480;28;20159;-61
2022/01/20 08:20:44;;;;;;;14.77;2.33;;;3.90;85.70;;;;;;4982390;28;20065;-61
2022/01/20 08:23:11;;;;;;;11.60;2.72;;;3.90;85.70;;;;;;4983311;28;20047;-61
2022/01/20 08:25:38;;;;;;;12.88;2.25;;;3.90;85.30;;;;;;4982894;28;20058;-61
2022/01/20 08:28:05;;;;;;;14.60;2.53;;;4.00;84.70;;;;;;4983389;28;21139;-62
2022/01/20 08:30:32;;;;;;;12.18;1.73;;;4.20;85.00;;;;;;4982218;28;21331;-61
2022/01/20 08:33:00;;;;;;;13.80;2.08;;;4.30;84.10;;;;;;4983929;28;20054;-61
2022/01/20 08:35:31;;;;;;;13.05;1.75;;;4.50;84.00;;;;;;4982153;28;20064;-61
2022/01/20 08:37:59;;;;;;;10.15;1.90;;;4.60;82.60;;;;;;4983139;28;20214;-61
2022/01/20 08:40:26;;;;;;;15.52;1.60;;;4.80;82.80;;;;;;4982267;28;20055;-61
2022/01/20 08:42:54;;;;;;;11.32;2.08;;;4.90;82.70;;;;;;4983471;28;20280;-61
2022/01/20 08:45:24;;;;;;;13.98;2.28;;;5.10;82.60;;;;;;4982550;28;20085;-61
2022/01/20 08:47:52;;;;;;;12.05;2.03;;;4.90;84.90;;;;;;4983012;28;20074;-61
2022/01/20 08:50:20;;;;;;;12.43;2.20;;;4.70;86.40;;;;;;4982787;28;20054;-61
2022/01/20 08:52:48;;;;;;;9.98;2.03;;;4.50;88.70;;;;;;4983385;28;20433;-61
2022/01/20 08:55:16;;;;;;;11.73;1.67;;;4.30;89.70;;;;;;4983272;28;20051;-61
2022/01/20 08:57:43;;;;;;;11.45;2.13;;;4.20;90.10;;;;;;4982157;28;20058;-61
2022/01/20 09:00:11;;;;;;;6.72;1.20;;;4.00;90.10;;;;;;4982629;28;20046;-61
2022/01/20 09:02:38;;;;;;;12.57;1.52;;;4.00;90.10;;;;;;4982414;28;21172;-61
2022/01/20 09:05:06;;;;;;;8.30;1.52;;;4.00;90.10;;;;;;4981716;28;20509;-61
2022/01/20 09:07:34;;;;;;;8.90;1.25;;;4.10;90.00;;;;;;4981981;28;20528;-61
2022/01/20 09:10:04;;;;;;;5.15;1.02;;;4.30;89.70;;;;;;4981918;28;20051;-61
2022/01/20 09:15:28;;;;;;;6.75;1.20;;;4.50;90.10;;;;;;4981973;28;20042;-61
2022/01/20 09:17:56;;;;;;;14.43;2.42;;;4.50;90.20;;;;;;4981759;28;22184;-61
2022/01/20 09:20:23;;;;;;;11.00;2.17;;;4.40;90.40;;;;;;4986532;28;20050;-61
2022/01/20 09:22:52;;;;;;;12.80;1.92;;;4.40;90.70;;;;;;4986558;28;20580;-61
2022/01/20 09:25:21;;;;;;;11.25;2.92;;;4.30;91.10;;;;;;4986538;28;20046;-61
2022/01/20 09:27:50;;;;;;;15.38;2.58;;;4.30;91.30;;;;;;4986146;28;20061;-61
2022/01/20 09:30:19;;;;;;;6.18;1.90;;;4.30;91.40;;;;;;4984678;28;20506;-61
2022/01/20 09:32:57;;;;;;;12.52;2.20;;;4.30;91.50;;;;;;4985725;28;20065;-61
2022/01/20 09:35:24;;;;;;;18.80;2.63;;;4.30;91.40;;;;;;4984300;28;20054;-61
2022/01/20 09:37:52;;;;;;;15.60;3.45;;;4.30;91.40;;;;;;4984518;28;20062;-61
2022/01/20 09:40:19;;;;;;;16.33;2.70;;;4.30;91.30;;;;;;4985589;28;20085;-61
2022/01/20 09:42:46;;;;;;;10.90;2.13;;;4.30;91.30;;;;;;4985991;28;20050;-62
2022/01/20 09:45:15;;;;;;;16.02;1.88;;;4.50;91.50;;;;;;4986075;28;20051;-61
2022/01/20 09:47:44;;;;;;;21.40;2.67;;;5.00;91.50;;;;;;4985226;28;20053;-61
2022/01/20 09:50:13;;;;;;;14.98;2.17;;;5.70;90.80;;;;;;4982312;28;21428;-61
2022/01/20 09:52:39;;;;;;;17.48;3.55;;;6.20;90.00;;;;;;4984241;28;21549;-62
2022/01/20 09:55:09;;;;;;;15.65;3.30;;;6.20;88.00;;;;;;4985026;28;20088;-61
2022/01/20 09:57:35;;;;;;;12.73;2.92;;;6.00;87.50;;;;;;4984308;28;20056;-61
2022/01/20 10:00:04;;;;;;;12.75;3.20;;;5.70;87.70;;;;;;4984729;28;20066;-61
2022/01/20 10:02:31;;;;;;;13.40;1.88;;;5.60;88.30;;;;;;4983186;28;20174;-61
2022/01/20 10:04:58;;;;;;;14.88;2.33;;;5.50;88.40;;;;;;4984462;28;20053;-61
2022/01/20 10:07:32;;;;;;;23.23;3.25;;;5.40;89.00;;;;;;4983480;28;20505;-61
2022/01/20 10:09:59;;;;;;;12.27;1.95;;;5.40;89.10;;;;;;4983576;28;20057;-61
2022/01/20 10:12:31;;;;;;;11.65;2.25;;;5.30;88.80;;;;;;4984970;28;20061;-62
2022/01/20 10:14:59;;;;;;;10.05;1.42;;;5.20;89.20;;;;;;4984707;28;20072;-61
2022/01/20 10:17:29;;;;;;;9.70;1.23;;;5.10;89.40;;;;;;4984864;28;20078;-61
2022/01/20 10:20:00;;;;;;;8.32;1.48;;;5.10;89.50;;;;;;4984709;28;20141;-61
2022/01/20 10:22:29;;;;;;;8.73;2.17;;;5.10;89.10;;;;;;4983656;28;20055;-61
2022/01/20 10:25:02;;;;;;;12.27;1.63;;;5.10;88.90;;;;;;4984875;28;21094;-61
2022/01/20 10:27:32;;;;;;;14.65;1.65;;;5.00;88.90;;;;;;4982898;28;20149;-61
2022/01/20 10:30:00;;;;;;;8.73;1.42;;;5.10;89.00;;;;;;4983209;28;20066;-61
2022/01/20 10:32:38;;;;;;;13.48;1.63;;;5.30;90.10;;;;;;4984283;28;20058;-62
2022/01/20 10:35:06;;;;;;;13.27;2.25;;;5.80;89.60;;;;;;4982952;28;20064;-62
2022/01/20 10:37:33;;;;;;;13.63;2.28;;;5.90;88.50;;;;;;4982996;28;20059;-62
2022/01/20 10:40:09;;;;;;;15.65;2.58;;;5.90;88.00;;;;;;4983946;28;20051;-62
2022/01/20 10:42:39;;;;;;;10.52;1.98;;;5.80;88.00;;;;;;4982828;28;20061;-62
2022/01/20 10:45:07;;;;;;;11.55;2.30;;;5.80;88.00;;;;;;4983600;28;20813;-61
2022/01/20 10:47:36;;;;;;;11.52;2.13;;;5.60;84.60;;;;;;4983460;28;22089;-62
2022/01/20 10:50:14;;;;;;;13.40;2.75;;;5.50;84.90;;;;;;4984299;28;20120;-62
2022/01/20 10:52:44;;;;;;;11.45;2.00;;;5.60;84.40;;;;;;4984765;28;20050;-61
2022/01/20 10:55:20;;;;;;;17.27;2.58;;;6.00;84.20;;;;;;4982681;28;20526;-62
2022/01/20 10:58:09;;;;;;;13.75;2.20;;;6.40;82.40;;;;;;4983475;28;20059;-62
2022/01/20 11:00:42;;;;;;;14.65;2.70;;;6.70;81.20;;;;;;4984192;28;20080;-62
2022/01/20 11:03:09;;;;;;;13.18;2.88;;;6.80;80.50;;;;;;4984587;28;20054;-62
2022/01/20 11:05:36;;;;;;;14.30;2.58;;;6.80;81.20;;;;;;4983882;28;20050;-62
2022/01/20 11:08:03;;;;;;;7.03;1.40;;;6.70;81.40;;;;;;4983886;28;20153;-62
2022/01/20 11:10:30;;;;;;;8.15;1.30;;;6.40;81.60;;;;;;4984816;28;22308;-62
2022/01/20 11:12:58;;;;;;;9.80;1.63;;;6.10;82.60;;;;;;4984132;28;20064;-62
2022/01/20 11:15:29;;;;;;;7.82;1.65;;;5.80;82.20;;;;;;4984789;28;20058;-62
2022/01/20 11:17:57;;;;;;;7.93;1.85;;;5.60;83.40;;;;;;4984502;28;20230;-62
2022/01/20 11:20:28;;;;;;;10.32;2.10;;;5.40;84.20;;;;;;4983879;28;20271;-62
2022/01/20 11:23:00;;;;;;;10.80;1.60;;;5.40;84.80;;;;;;4984118;28;20109;-61
2022/01/20 11:25:30;;;;;;;16.83;1.95;;;5.30;85.60;;;;;;4984237;28;20054;-62
2022/01/20 11:28:07;;;;;;;8.45;1.65;;;5.40;85.80;;;;;;4983624;28;20446;-62
2022/01/20 11:30:35;;;;;;;6.60;1.63;;;5.50;85.70;;;;;;4983679;28;20065;-62
2022/01/20 11:33:04;;;;;;;11.77;2.08;;;5.50;85.50;;;;;;4984994;28;20081;-62
2022/01/20 11:35:40;;;;;;;15.05;3.20;;;5.40;86.60;;;;;;4984060;28;20505;-61
2022/01/20 11:38:08;;;;;;;15.65;2.63;;;5.30;88.30;;;;;;4984426;28;20780;-62
2022/01/20 11:40:47;;;;;;;8.85;1.88;;;5.00;89.60;;;;;;4983375;28;20880;-62
2022/01/20 11:43:15;;;;;;;9.65;1.40;;;4.60;90.00;;;;;;4983076;28;20136;-62
2022/01/20 11:45:46;;;;;;;10.30;1.30;;;4.40;90.50;;;;;;4982543;28;20205;-62
2022/01/20 11:48:15;;;;;;;9.68;1.40;;;4.40;91.10;;;;;;4982073;28;20057;-62
2022/01/20 11:50:43;;;;;;;6.60;1.02;;;4.50;91.20;;;;;;4982859;28;20061;-63
2022/01/20 11:53:12;;;;;;;7.57;1.42;;;4.70;91.00;;;;;;4982994;28;20120;-63
2022/01/20 11:55:51;;;;;;;9.02;1.80;;;5.10;90.50;;;;;;4984090;28;20627;-63
2022/01/20 11:58:22;;;;;;;8.07;1.48;;;5.50;90.00;;;;;;4983120;28;20050;-63
2022/01/20 12:01:00;;;;;;;9.82;2.05;;;5.90;88.40;;;;;;4981227;28;20145;-63
2022/01/20 12:03:28;;;;;;;7.53;1.58;;;6.30;86.00;;;;;;4981328;28;20050;-63
2022/01/20 12:06:00;;;;;;;14.80;1.67;;;6.60;85.30;;;;;;4982799;28;20896;-63
2022/01/20 12:08:27;;;;;;;15.77;2.08;;;6.60;85.00;;;;;;4983003;28;20513;-64
2022/01/20 12:11:02;;;;;;;14.00;2.25;;;6.50;85.40;;;;;;4983524;28;20050;-63
2022/01/20 12:13:33;;;;;;;13.52;2.70;;;6.50;86.00;;;;;;4979108;28;20054;-63
2022/01/20 12:16:02;;;;;;;9.18;2.00;;;6.30;86.40;;;;;;4981163;28;20434;-63
2022/01/20 12:18:30;;;;;;;9.80;2.20;;;6.10;86.70;;;;;;4982396;28;20057;-63
2022/01/20 12:21:00;;;;;;;12.35;2.50;;;5.90;86.10;;;;;;4982103;28;20054;-64
2022/01/20 12:23:27;;;;;;;14.10;2.58;;;5.70;86.60;;;;;;4982568;28;20056;-63
2022/01/20 12:26:02;;;;;;;19.15;3.50;;;5.60;87.20;;;;;;4982027;28;20058;-63
2022/01/20 12:28:29;;;;;;;15.73;2.60;;;5.60;87.40;;;;;;4981995;28;20093;-63
2022/01/20 12:31:02;;;;;;;15.20;3.20;;;5.70;87.70;;;;;;4982027;28;20046;-64
2022/01/20 12:33:31;;;;;;;21.20;3.17;;;5.80;87.90;;;;;;4982831;28;20140;-62
2022/01/20 12:36:02;;;;;;;12.77;2.67;;;5.60;87.10;;;;;;4982898;28;20532;-62
2022/01/20 12:38:32;;;;;;;18.23;3.15;;;5.50;87.60;;;;;;4981935;28;20078;-62
2022/01/20 12:41:04;;;;;;;15.68;3.00;;;5.30;88.30;;;;;;4981666;28;20046;-62
2022/01/20 12:43:46;;;;;;;12.80;2.50;;;5.20;89.50;;;;;;4979535;28;20152;-62
2022/01/20 12:46:15;;;;;;;12.95;3.03;;;5.20;90.10;;;;;;4980947;28;20194;-62
2022/01/20 12:48:57;;;;;;;12.82;2.53;;;5.20;90.10;;;;;;4982915;28;20054;-62
2022/01/20 12:51:32;;;;;;;22.90;3.38;;;5.20;90.00;;;;;;4980505;28;20108;-62
2022/01/20 12:54:05;;;;;;;15.80;2.78;;;5.30;90.00;;;;;;4983773;28;20137;-62
2022/01/20 12:56:34;;;;;;;17.48;2.97;;;5.30;89.80;;;;;;4985158;28;20574;-62
2022/01/20 12:59:02;;;;;;;17.88;2.55;;;5.30;89.60;;;;;;4984202;28;20653;-62
2022/01/20 13:01:40;;;;;;;22.10;3.00;;;5.20;89.70;;;;;;4983633;28;20064;-63
2022/01/20 13:04:08;;;;;;;17.70;3.45;;;5.30;90.00;;;;;;4985371;28;20059;-62
2022/01/20 13:06:35;;;;;;;15.55;4.18;;;5.40;90.10;;;;;;4982639;28;20722;-63
2022/01/20 13:09:07;;;;;;;13.70;2.67;;;5.60;89.60;;;;;;4984964;28;20061;-62
2022/01/20 13:11:39;;;;;;;15.48;2.33;;;5.60;88.70;;;;;;4984191;28;20054;-63
2022/01/20 13:14:07;;;;;;;15.20;2.17;;;5.50;88.80;;;;;;4984645;28;20453;-62
2022/01/20 13:16:34;;;;;;;10.38;1.60;;;5.40;88.00;;;;;;4984907;28;20821;-62
2022/01/20 13:19:04;;;;;;;12.23;2.15;;;5.20;87.80;;;;;;4979165;28;20241;-62
2022/01/20 13:21:36;;;;;;;9.45;1.70;;;5.20;87.80;;;;;;4979297;28;20046;-62
2022/01/20 13:24:06;;;;;;;16.63;2.30;;;5.10;87.50;;;;;;4980409;28;20152;-63
2022/01/20 13:26:44;;;;;;;12.15;1.95;;;5.10;87.90;;;;;;4982553;28;20532;-62
2022/01/20 13:29:11;;;;;;;14.35;1.98;;;5.10;87.60;;;;;;4982908;28;20200;-63
2022/01/20 13:31:38;;;;;;;10.93;2.30;;;5.10;87.70;;;;;;4981810;28;20046;-63
2022/01/20 13:34:11;;;;;;;12.32;1.92;;;5.10;88.10;;;;;;4980353;28;20173;-63
2022/01/20 13:36:42;;;;;;;12.88;2.85;;;5.20;88.00;;;;;;4981050;28;20145;-62
2022/01/20 13:39:10;;;;;;;12.45;1.77;;;5.20;87.90;;;;;;4981458;28;20201;-63
2022/01/20 13:41:36;;;;;;;18.98;2.42;;;5.20;88.20;;;;;;4982590;28;22137;-62
2022/01/20 13:47:06;;;;;;;10.13;1.98;;;5.00;88.60;;;;;;4983195;28;20035;-62
2022/01/20 13:49:34;;;;;;;11.15;1.67;;;4.80;88.90;;;;;;4982440;28;20054;-63
2022/01/20 13:52:05;;;;;;;5.43;1.42;;;4.80;88.70;;;;;;4978730;28;20129;-62